Time;durP1;ratioP1;P1;durP2;ratioP2;P2;SDS_P1;SDS_P2;PMS_P1;PMS_P2;Temp;Humidity;BMP_temperature;BMP_pressure;BME280_temperature;BME280_humidity;BME280_pressure;Samples;Min_cycle;Max_cycle;Signal;HPM_P1;HPM_P2
2020/05/02 00:00:01;;;;;;;1.1;0.7;;;;;;;8.84;100;949.7938;;;;
2020/05/02 00:07:27;;;;;;;0.7;0.7;;;;;;;8.68;100;949.9108;;;;
2020/05/02 00:09:45;;;;;;;1;0.8;;;;;;;8.79;100;949.8467;;;;
2020/05/02 00:12:10;;;;;;;1.6;0.7;;;;;;;8.74;100;949.87;;;;
2020/05/02 00:14:36;;;;;;;1.1;0.8;;;;;;;8.77;100;949.8053;;;;
2020/05/02 00:17:01;;;;;;;1.9;0.8;;;;;;;8.72;100;949.8876;;;;
2020/05/02 00:19:27;;;;;;;1.1;0.7;;;;;;;8.77;100;949.9742;;;;
2020/05/02 00:21:52;;;;;;;0.8;0.7;;;;;;;8.68;100;949.949;;;;
2020/05/02 00:24:19;;;;;;;0.8;0.8;;;;;;;8.62;100;950.0101;;;;
2020/05/02 00:26:44;;;;;;;1.7;1;;;;;;;8.75;100;949.9748;;;;
2020/05/02 00:29:09;;;;;;;2.7;0.9;;;;;;;8.72;100;950.0394;;;;
2020/05/02 00:31:34;;;;;;;1;0.8;;;;;;;8.75;100;950.0097;;;;
2020/05/02 00:33:59;;;;;;;1.2;1;;;;;;;8.79;100;949.9629;;;;
2020/05/02 00:36:24;;;;;;;1;0.9;;;;;;;8.92;100;949.9733;;;;
2020/05/02 00:38:49;;;;;;;1.2;1.1;;;;;;;8.92;100;949.9611;;;;
2020/05/02 00:41:14;;;;;;;1.1;1;;;;;;;8.94;100;950.0367;;;;
2020/05/02 00:43:39;;;;;;;1.3;1;;;;;;;8.86;100;950.0597;;;;
2020/05/02 00:48:30;;;;;;;1;0.9;;;;;;;8.96;100;950.1361;;;;
2020/05/02 00:50:56;;;;;;;1.6;1;;;;;;;9.01;100;950.183;;;;
2020/05/02 00:53:21;;;;;;;1.4;1;;;;;;;9.07;100;950.2144;;;;
2020/05/02 00:55:47;;;;;;;1.3;1.2;;;;;;;9.06;100;950.1884;;;;
2020/05/02 00:58:12;;;;;;;1.7;1.1;;;;;;;9.11;100;950.2619;;;;
2020/05/02 01:01:18;;;;;;;1.1;1;;;;;;;9.21;100;950.2488;;;;
2020/05/02 01:03:02;;;;;;;1.2;1.1;;;;;;;9.21;100;950.318;;;;
2020/05/02 01:05:28;;;;;;;1.4;0.9;;;;;;;9.25;100;950.3835;;;;
2020/05/02 01:07:55;;;;;;;1.5;0.9;;;;;;;9.26;100;950.4111;;;;
2020/05/02 01:10:19;;;;;;;1.2;0.9;;;;;;;9.3;100;950.454;;;;
2020/05/02 01:12:46;;;;;;;1.3;1.1;;;;;;;9.36;100;950.5033;;;;
2020/05/02 01:15:11;;;;;;;0.8;0.8;;;;;;;9.35;100;950.5793;;;;
2020/05/02 01:17:36;;;;;;;1.1;1;;;;;;;9.42;100;950.5323;;;;
2020/05/02 01:20:01;;;;;;;1.2;1;;;;;;;9.35;100;950.5258;;;;
2020/05/02 01:22:26;;;;;;;1.1;1;;;;;;;9.3;100;950.4871;;;;
2020/05/02 01:24:51;;;;;;;1.6;1.2;;;;;;;9.33;100;950.5661;;;;
2020/05/02 01:27:16;;;;;;;1.4;1.2;;;;;;;9.28;100;950.5642;;;;
2020/05/02 01:29:42;;;;;;;1.8;1.1;;;;;;;9.34;100;950.5648;;;;
2020/05/02 01:32:30;;;;;;;1.2;1;;;;;;;9.34;100;950.5884;;;;
2020/05/02 01:34:40;;;;;;;1.8;1;;;;;;;9.29;100;950.6049;;;;
2020/05/02 01:37:01;;;;;;;1.5;1.1;;;;;;;9.27;100;950.6;;;;
2020/05/02 01:39:22;;;;;;;1.6;1.4;;;;;;;9.32;100;950.6653;;;;
2020/05/02 01:41:48;;;;;;;1.5;1.3;;;;;;;9.28;100;950.7;;;;
2020/05/02 01:44:13;;;;;;;1.6;1.3;;;;;;;9.36;100;950.6811;;;;
2020/05/02 01:46:38;;;;;;;1.5;1.3;;;;;;;9.36;100;950.735;;;;
2020/05/02 01:49:03;;;;;;;1.8;1.5;;;;;;;9.28;100;950.7723;;;;
2020/05/02 01:51:28;;;;;;;2;1.5;;;;;;;9.27;100;950.7723;;;;
2020/05/02 01:53:53;;;;;;;1.7;1.4;;;;;;;9.3;100;950.7731;;;;
2020/05/02 01:56:18;;;;;;;1.5;1.3;;;;;;;9.28;100;950.7512;;;;
2020/05/02 01:58:43;;;;;;;3.2;1.6;;;;;;;9.25;100;950.6916;;;;
2020/05/02 02:03:33;;;;;;;1.7;1.1;;;;;;;9.19;100;950.6984;;;;
2020/05/02 02:05:59;;;;;;;3.3;1.5;;;;;;;9.13;100;950.688;;;;
2020/05/02 02:10:07;;;;;;;2.1;1.3;;;;;;;9.16;100;950.6818;;;;
2020/05/02 02:12:32;;;;;;;1.9;1.3;;;;;;;9.07;99.8291;950.7117;;;;
2020/05/02 02:14:57;;;;;;;3.3;1.3;;;;;;;9.04;99.375;950.7603;;;;
2020/05/02 02:17:30;;;;;;;2.8;1.4;;;;;;;9.02;98.07324;950.7599;;;;
2020/05/02 02:19:52;;;;;;;3.4;1.4;;;;;;;9.03;98.61426;950.7843;;;;
2020/05/02 02:22:16;;;;;;;2.5;1.3;;;;;;;9.05;98.58398;950.8033;;;;
2020/05/02 02:24:39;;;;;;;3.1;1.6;;;;;;;9.06;97.32422;950.8367;;;;
2020/05/02 02:27:03;;;;;;;2.5;1.2;;;;;;;8.96;97.97852;950.8511;;;;
2020/05/02 02:29:29;;;;;;;2.9;1.2;;;;;;;9.01;97.18848;950.7883;;;;
2020/05/02 02:31:54;;;;;;;3.7;1.4;;;;;;;8.98;97.43262;950.9522;;;;
2020/05/02 02:34:23;;;;;;;2.3;1.1;;;;;;;9.05;96.74902;950.9813;;;;
2020/05/02 02:36:49;;;;;;;2.6;1.3;;;;;;;8.99;96.42969;950.988;;;;
2020/05/02 02:39:14;;;;;;;2.3;1.2;;;;;;;9.02;97.59375;950.9581;;;;
2020/05/02 02:41:39;;;;;;;2.5;1.3;;;;;;;9.06;97.94629;950.9604;;;;
2020/05/02 02:44:05;;;;;;;2.4;1.2;;;;;;;9.01;97.1084;951.0101;;;;
2020/05/02 02:46:35;;;;;;;2.6;1.4;;;;;;;8.92;97.62695;951.0067;;;;
2020/05/02 02:48:56;;;;;;;2.8;1.3;;;;;;;8.88;97.3418;951.0678;;;;
2020/05/02 02:51:22;;;;;;;2.3;1.2;;;;;;;8.93;98.32617;951.0742;;;;
2020/05/02 02:53:46;;;;;;;2;1.3;;;;;;;8.91;98.93359;951.0661;;;;
2020/05/02 02:56:11;;;;;;;3.3;1.3;;;;;;;8.91;97.5791;951.1185;;;;
2020/05/02 02:58:37;;;;;;;1.8;1.1;;;;;;;8.75;97.05176;951.0631;;;;
2020/05/02 03:01:02;;;;;;;2.1;1;;;;;;;8.75;95.7334;951.146;;;;
2020/05/02 03:03:27;;;;;;;2.1;1.1;;;;;;;8.78;97.29785;951.1635;;;;
2020/05/02 03:05:52;;;;;;;2.4;1;;;;;;;8.85;96.61133;951.2023;;;;
2020/05/02 03:08:18;;;;;;;1.3;0.8;;;;;;;8.86;96.51367;951.2303;;;;
2020/05/02 03:10:43;;;;;;;1.9;0.9;;;;;;;8.78;95.25586;951.3242;;;;
2020/05/02 03:13:09;;;;;;;2.4;1;;;;;;;8.84;96.4502;951.4119;;;;
2020/05/02 03:15:34;;;;;;;1.6;0.9;;;;;;;8.86;95.78027;951.47;;;;
2020/05/02 03:18:01;;;;;;;1.8;1;;;;;;;8.83;95.41699;951.4111;;;;
2020/05/02 03:20:26;;;;;;;2.3;1;;;;;;;8.71;95.08203;951.3315;;;;
2020/05/02 03:22:52;;;;;;;1.8;0.8;;;;;;;8.76;94.56445;951.3694;;;;
2020/05/02 03:25:17;;;;;;;1.4;1;;;;;;;8.79;95.31543;951.3884;;;;
2020/05/02 03:27:44;;;;;;;2.4;1;;;;;;;8.82;95.59668;951.3977;;;;
2020/05/02 03:30:09;;;;;;;1.8;0.8;;;;;;;8.72;93.8457;951.4316;;;;
2020/05/02 03:32:35;;;;;;;2.9;1;;;;;;;8.63;94.56934;951.4352;;;;
2020/05/02 03:35:00;;;;;;;3;1;;;;;;;8.68;94.70898;951.4278;;;;
2020/05/02 03:37:25;;;;;;;2.5;1;;;;;;;8.77;94.14258;951.4201;;;;
2020/05/02 03:39:51;;;;;;;2.1;1;;;;;;;8.68;93.35449;951.462;;;;
2020/05/02 03:42:16;;;;;;;2.6;0.9;;;;;;;8.59;93.77051;951.4925;;;;
2020/05/02 03:44:41;;;;;;;2.8;1.2;;;;;;;8.36;93.96094;951.4856;;;;
2020/05/02 03:47:06;;;;;;;2.2;1.1;;;;;;;8.35;95.42578;951.5692;;;;
2020/05/02 03:49:31;;;;;;;2.6;1;;;;;;;8.42;94.57129;951.5469;;;;
2020/05/02 03:51:56;;;;;;;4.1;1.2;;;;;;;8.42;96.47266;951.6541;;;;
2020/05/02 03:54:21;;;;;;;3.2;1.1;;;;;;;8.26;94.98242;951.5963;;;;
2020/05/02 03:56:48;;;;;;;2.8;1.2;;;;;;;8.33;95.71973;951.6484;;;;
2020/05/02 03:59:11;;;;;;;2.2;1.2;;;;;;;8.4;95.05859;951.6487;;;;
2020/05/02 04:02:27;;;;;;;2.9;1;;;;;;;8.4;95.03516;951.6536;;;;
2020/05/02 04:04:52;;;;;;;2.6;1.1;;;;;;;8.37;95.55664;951.7015;;;;
2020/05/02 04:07:17;;;;;;;2.3;1.1;;;;;;;8.25;95.58594;951.7169;;;;
2020/05/02 04:09:42;;;;;;;3.1;1.2;;;;;;;8.25;95.94043;951.7615;;;;
2020/05/02 04:12:07;;;;;;;2.8;1.3;;;;;;;8.26;96.43652;951.7878;;;;
2020/05/02 04:14:32;;;;;;;2.2;1.1;;;;;;;8.2;96.40918;951.7951;;;;
2020/05/02 04:17:08;;;;;;;3.7;1.4;;;;;;;8.22;95.62305;951.8812;;;;
2020/05/02 04:19:25;;;;;;;2.9;1.1;;;;;;;8.27;95.40625;951.9965;;;;
2020/05/02 04:21:49;;;;;;;2.1;1.1;;;;;;;8.06;96.35645;952.0452;;;;
2020/05/02 04:24:14;;;;;;;3.1;1.3;;;;;;;8.05;96.57129;952.0547;;;;
2020/05/02 04:26:45;;;;;;;3.3;1.3;;;;;;;8.1;96.73047;951.9872;;;;
2020/05/02 04:29:06;;;;;;;3.1;1.3;;;;;;;8.06;97.46582;952.0321;;;;
2020/05/02 04:31:44;;;;;;;2.9;1.3;;;;;;;8.01;96.81348;952.0313;;;;
2020/05/02 04:33:57;;;;;;;2.7;1.3;;;;;;;8.02;96.7832;952.1184;;;;
2020/05/02 04:36:20;;;;;;;2.5;1.2;;;;;;;8.06;97.71777;952.2049;;;;
2020/05/02 04:38:45;;;;;;;3.1;1.2;;;;;;;8.05;97.12109;952.2803;;;;
2020/05/02 04:41:11;;;;;;;2.1;1.1;;;;;;;8.05;96.85742;952.3039;;;;
2020/05/02 04:43:36;;;;;;;3.3;1.2;;;;;;;7.98;97.48242;952.3211;;;;
2020/05/02 04:46:02;;;;;;;3.9;1.4;;;;;;;7.93;97.42383;952.4012;;;;
2020/05/02 04:48:27;;;;;;;2.6;1.1;;;;;;;8.06;97.58008;952.2844;;;;
2020/05/02 04:50:53;;;;;;;3.8;1.3;;;;;;;8.1;96.1123;952.3597;;;;
2020/05/02 04:53:19;;;;;;;2.9;1.1;;;;;;;8.14;95.98535;952.4238;;;;
2020/05/02 04:55:45;;;;;;;4.3;1.5;;;;;;;8.21;96.34473;952.4606;;;;
2020/05/02 04:58:10;;;;;;;2.7;1.1;;;;;;;8.21;96.41309;952.4801;;;;
2020/05/02 05:03:02;;;;;;;3.3;1.3;;;;;;;8.1;95.02539;952.6283;;;;
2020/05/02 05:05:28;;;;;;;3.8;1.4;;;;;;;8.1;95.94238;952.6453;;;;
2020/05/02 05:07:53;;;;;;;3.7;1.4;;;;;;;8.04;95.62012;952.6548;;;;
2020/05/02 05:10:18;;;;;;;5.6;1.4;;;;;;;8.15;95.26563;952.6697;;;;
2020/05/02 05:12:43;;;;;;;4.1;1.5;;;;;;;8.08;94.93164;952.7385;;;;
2020/05/02 05:15:10;;;;;;;5;1.2;;;;;;;8.17;94.8584;952.7626;;;;
2020/05/02 05:17:35;;;;;;;3.7;1.3;;;;;;;8.21;94.76465;952.8274;;;;
2020/05/02 05:20:00;;;;;;;3.6;1.2;;;;;;;8.37;94.67285;952.8616;;;;
2020/05/02 05:22:26;;;;;;;4.2;1.4;;;;;;;8.42;93.96289;952.9116;;;;
2020/05/02 05:24:51;;;;;;;4.3;1.3;;;;;;;8.49;93.44043;952.9905;;;;
2020/05/02 05:27:17;;;;;;;3.9;1.3;;;;;;;8.56;93.22461;953.0463;;;;
2020/05/02 05:29:42;;;;;;;4.2;1.2;;;;;;;8.59;92.74902;953.0491;;;;
2020/05/02 05:32:08;;;;;;;3.1;1.2;;;;;;;8.68;92.77051;953.0481;;;;
2020/05/02 05:34:33;;;;;;;4.3;1.2;;;;;;;8.73;91.84277;953.1242;;;;
2020/05/02 05:37:04;;;;;;;3.1;1.2;;;;;;;8.63;91.72754;953.0935;;;;
2020/05/02 05:39:26;;;;;;;3.4;1.1;;;;;;;8.56;91.46289;953.0511;;;;
2020/05/02 05:41:52;;;;;;;7;1.3;;;;;;;8.69;90.98438;953.0181;;;;
2020/05/02 05:44:17;;;;;;;3;1.1;;;;;;;8.75;91.05566;953.0678;;;;
2020/05/02 05:46:42;;;;;;;3.6;1.1;;;;;;;8.76;90.85059;953.1539;;;;
2020/05/02 05:49:13;;;;;;;6.2;1.4;;;;;;;8.91;90.96387;953.179;;;;
2020/05/02 05:51:47;;;;;;;3.5;1.4;;;;;;;8.93;89.82031;953.2102;;;;
2020/05/02 05:54:01;;;;;;;4.1;1.2;;;;;;;8.94;89.54688;953.2395;;;;
2020/05/02 05:56:24;;;;;;;3.4;1.3;;;;;;;8.99;89.69824;953.2517;;;;
2020/05/02 05:58:50;;;;;;;4.4;1.6;;;;;;;9.08;89.49707;953.3018;;;;
2020/05/02 06:01:39;;;;;;;4;1.4;;;;;;;9.19;89.21875;953.3173;;;;
2020/05/02 06:08:28;;;;;;;2.8;1.3;;;;;;;9.42;89.37207;953.2877;;;;
2020/05/02 06:10:53;;;;;;;3.6;1.2;;;;;;;9.11;88.84863;953.2665;;;;
2020/05/02 06:13:18;;;;;;;4.1;1.3;;;;;;;9.21;88.81152;953.3661;;;;
2020/05/02 06:15:43;;;;;;;4.7;1.4;;;;;;;9.32;87.61719;953.4222;;;;
2020/05/02 06:18:08;;;;;;;4.1;1.6;;;;;;;9.36;87.89063;953.3251;;;;
2020/05/02 06:20:37;;;;;;;3.8;1.2;;;;;;;9.17;87.71387;953.3608;;;;
2020/05/02 06:23:07;;;;;;;3.2;1.3;;;;;;;9.23;87.38281;953.3405;;;;
2020/05/02 06:25:32;;;;;;;3.2;1.2;;;;;;;9.36;87.5;953.2872;;;;
2020/05/02 06:27:54;;;;;;;3.4;1.3;;;;;;;9.4;86.37109;953.2673;;;;
2020/05/02 06:30:21;;;;;;;4.3;1.3;;;;;;;9.47;85.8916;953.3194;;;;
2020/05/02 06:32:50;;;;;;;3.8;1.5;;;;;;;9.49;85.94336;953.3181;;;;
2020/05/02 06:37:33;;;;;;;3.2;1.3;;;;;;;9.71;84.70117;953.3297;;;;
2020/05/02 06:39:58;;;;;;;4.5;1.4;;;;;;;9.68;84.2334;953.3464;;;;
2020/05/02 06:42:27;;;;;;;3.7;1.2;;;;;;;9.79;83.66992;953.3657;;;;
2020/05/02 06:44:48;;;;;;;3.9;1.5;;;;;;;9.82;84.45605;953.3481;;;;
2020/05/02 06:47:16;;;;;;;5;1.5;;;;;;;9.97;82.56641;953.3775;;;;
2020/05/02 06:49:37;;;;;;;4.3;1.2;;;;;;;9.96;82.2666;953.4114;;;;
2020/05/02 06:52:02;;;;;;;4.3;1.6;;;;;;;9.97;82.85449;953.4508;;;;
2020/05/02 06:54:27;;;;;;;4.7;1.6;;;;;;;9.89;81.4248;953.3716;;;;
2020/05/02 06:56:52;;;;;;;4.3;1.4;;;;;;;10.16;80.31445;953.3819;;;;
2020/05/02 06:59:17;;;;;;;4.5;1.3;;;;;;;10.05;81.38672;953.3839;;;;
2020/05/02 07:01:43;;;;;;;3.2;1.2;;;;;;;10.09;81.07324;953.3723;;;;
2020/05/02 07:04:08;;;;;;;3.5;1.3;;;;;;;10.21;81.31152;953.4167;;;;
2020/05/02 07:06:33;;;;;;;4;1.6;;;;;;;10.18;81.2168;953.4124;;;;
2020/05/02 07:08:58;;;;;;;3.1;1.1;;;;;;;10.02;76.50586;953.4146;;;;
2020/05/02 07:11:23;;;;;;;5.1;1.5;;;;;;;10.24;77.4082;953.3942;;;;
2020/05/02 07:13:48;;;;;;;5.6;1.3;;;;;;;10.21;79.03613;953.3979;;;;
2020/05/02 07:16:14;;;;;;;4.2;1.1;;;;;;;10.29;77.93555;953.3786;;;;
2020/05/02 07:18:40;;;;;;;3.8;1.5;;;;;;;10.21;76.83984;953.4192;;;;
2020/05/02 07:21:05;;;;;;;4.1;1.2;;;;;;;10.54;75.74707;953.3828;;;;
2020/05/02 07:23:31;;;;;;;4;1.2;;;;;;;10.6;75.31055;953.3303;;;;
2020/05/02 07:26:05;;;;;;;3.5;1.3;;;;;;;10.65;73.34961;953.3844;;;;
2020/05/02 07:28:24;;;;;;;4;1.3;;;;;;;10.92;73.84473;953.3982;;;;
2020/05/02 07:30:56;;;;;;;3.3;1.3;;;;;;;11.01;73.88281;953.4241;;;;
2020/05/02 07:33:15;;;;;;;2.8;1.2;;;;;;;11.11;72.9082;953.3986;;;;
2020/05/02 07:35:39;;;;;;;5.6;1.3;;;;;;;11.18;71.3418;953.4006;;;;
2020/05/02 07:38:05;;;;;;;3.7;1.4;;;;;;;11.17;72.67676;953.4113;;;;
2020/05/02 07:40:30;;;;;;;5;1.4;;;;;;;11.22;72.16602;953.4766;;;;
2020/05/02 07:42:57;;;;;;;4.2;1.3;;;;;;;11.42;70.54004;953.3979;;;;
2020/05/02 07:45:22;;;;;;;3.4;1;;;;;;;11.43;70.04492;953.3608;;;;
2020/05/02 07:47:48;;;;;;;3.4;1;;;;;;;11.57;70.05664;953.4763;;;;
2020/05/02 07:50:13;;;;;;;3;1.1;;;;;;;11.57;67.38086;953.5147;;;;
2020/05/02 07:52:40;;;;;;;3.3;1;;;;;;;11.49;65.77637;953.4467;;;;
2020/05/02 07:55:05;;;;;;;3.2;1.1;;;;;;;11.56;64.74902;953.4192;;;;
2020/05/02 07:57:30;;;;;;;7.6;4.7;;;;;;;11.53;64.7207;953.4355;;;;
2020/05/02 07:59:55;;;;;;;5.5;1.7;;;;;;;11.51;65.24902;953.4205;;;;
2020/05/02 08:02:22;;;;;;;3;1.2;;;;;;;11.61;65.55176;953.3429;;;;
2020/05/02 08:04:47;;;;;;;5.2;2.4;;;;;;;11.71;65.70703;953.3613;;;;
2020/05/02 08:07:12;;;;;;;4.8;1.8;;;;;;;11.69;65.42578;953.379;;;;
2020/05/02 08:10:22;;;;;;;2.8;1;;;;;;;11.65;65.25879;953.4361;;;;
2020/05/02 08:12:47;;;;;;;2;1;;;;;;;11.67;63.85352;953.4117;;;;
2020/05/02 08:15:12;;;;;;;3;1;;;;;;;11.52;63.47363;953.4681;;;;
2020/05/02 08:17:37;;;;;;;3.7;1;;;;;;;11.51;63.62207;953.4213;;;;
2020/05/02 08:20:02;;;;;;;4.8;1.2;;;;;;;11.69;62.20508;953.4745;;;;
2020/05/02 08:22:27;;;;;;;3;1.2;;;;;;;11.66;62.66211;953.4474;;;;
2020/05/02 08:24:52;;;;;;;3;1;;;;;;;11.63;62.13965;953.5558;;;;
2020/05/02 08:27:17;;;;;;;4.4;1.2;;;;;;;11.5;62.38672;953.5764;;;;
2020/05/02 08:29:43;;;;;;;3;1;;;;;;;11.63;63.18945;953.457;;;;
2020/05/02 08:32:18;;;;;;;4.3;1.2;;;;;;;11.52;63.69434;953.491;;;;
2020/05/02 08:34:33;;;;;;;3.3;1;;;;;;;11.55;62.79785;953.6152;;;;
2020/05/02 08:37:01;;;;;;;3.6;0.9;;;;;;;11.52;61.72168;953.5457;;;;
2020/05/02 08:42:01;;;;;;;2.7;1;;;;;;;11.65;62.32813;953.5691;;;;
2020/05/02 08:44:14;;;;;;;3.9;1;;;;;;;11.82;62.01758;953.485;;;;
2020/05/02 08:46:39;;;;;;;3.3;1;;;;;;;11.72;62.69629;953.4509;;;;
2020/05/02 08:49:08;;;;;;;2.8;1;;;;;;;11.77;62.06738;953.4447;;;;
2020/05/02 08:51:33;;;;;;;4.2;1.2;;;;;;;11.97;62.66211;953.4255;;;;
2020/05/02 08:53:54;;;;;;;3.1;1.1;;;;;;;12.02;63.18945;953.3234;;;;
2020/05/02 08:56:19;;;;;;;4.8;1.1;;;;;;;11.92;61.49902;953.2522;;;;
2020/05/02 08:58:44;;;;;;;3.6;1.2;;;;;;;12.1;60.9834;953.2208;;;;
2020/05/02 09:01:11;;;;;;;3;1.1;;;;;;;11.91;60.20605;953.3036;;;;
2020/05/02 09:03:36;;;;;;;5;1;;;;;;;12.09;60.62402;953.3165;;;;
2020/05/02 09:06:01;;;;;;;4.1;1;;;;;;;12.32;61.46582;953.3286;;;;
2020/05/02 09:08:26;;;;;;;3.2;1.2;;;;;;;12.35;60.68359;953.3782;;;;
2020/05/02 09:10:51;;;;;;;4.6;1.1;;;;;;;12.21;60.95215;953.3544;;;;
2020/05/02 09:13:16;;;;;;;3.6;1.2;;;;;;;12.19;61.84961;953.4719;;;;
2020/05/02 09:15:41;;;;;;;2;1;;;;;;;12.26;61.91699;953.3102;;;;
2020/05/02 09:18:06;;;;;;;3.3;1.1;;;;;;;11.9;61.69336;953.4031;;;;
2020/05/02 09:20:31;;;;;;;3.6;1;;;;;;;11.9;61.50879;953.3851;;;;
2020/05/02 09:22:56;;;;;;;3.8;1.2;;;;;;;11.74;62.15527;953.4063;;;;
2020/05/02 09:25:22;;;;;;;3;1.1;;;;;;;11.66;62.39844;953.3699;;;;
2020/05/02 09:27:47;;;;;;;3.9;1.1;;;;;;;11.69;63.20996;953.4891;;;;
2020/05/02 09:30:12;;;;;;;2.9;1.1;;;;;;;11.68;62.25098;953.4019;;;;
2020/05/02 09:32:39;;;;;;;3;1.1;;;;;;;11.54;62.12793;953.3758;;;;
2020/05/02 09:35:04;;;;;;;5.5;1.6;;;;;;;11.49;62.93945;953.4794;;;;
2020/05/02 09:37:30;;;;;;;5.3;1.5;;;;;;;11.39;63.23633;953.4745;;;;
2020/05/02 09:39:55;;;;;;;2.6;1.1;;;;;;;11.38;63.59082;953.4648;;;;
2020/05/02 09:42:24;;;;;;;3.4;1.1;;;;;;;11.43;63.92188;953.3975;;;;
2020/05/02 09:44:49;;;;;;;3.9;1.1;;;;;;;11.59;64.36133;953.3599;;;;
2020/05/02 09:47:18;;;;;;;2.9;1.2;;;;;;;11.65;64.43945;953.3855;;;;
2020/05/02 09:49:43;;;;;;;3.4;1.1;;;;;;;11.61;64.9502;953.4344;;;;
2020/05/02 09:52:08;;;;;;;3.4;1.6;;;;;;;11.6;64.9043;953.412;;;;
2020/05/02 09:54:33;;;;;;;3;1.1;;;;;;;11.58;65.61719;953.3183;;;;
2020/05/02 09:56:59;;;;;;;3.7;1.1;;;;;;;11.85;65.97949;953.3228;;;;
2020/05/02 09:59:24;;;;;;;3.1;1.1;;;;;;;11.64;66.75684;953.3145;;;;
2020/05/02 10:02:00;;;;;;;5.4;1.5;;;;;;;11.67;66.76172;953.3538;;;;
2020/05/02 10:04:15;;;;;;;3.5;1.2;;;;;;;11.78;66.93945;953.3753;;;;
2020/05/02 10:06:40;;;;;;;4.1;1.1;;;;;;;11.56;67.28516;953.3401;;;;
2020/05/02 10:09:07;;;;;;;3.3;1.2;;;;;;;11.59;68.59473;953.4186;;;;
2020/05/02 10:11:32;;;;;;;3.7;1.2;;;;;;;11.51;67.15332;953.3308;;;;
2020/05/02 10:13:59;;;;;;;2.6;1.2;;;;;;;11.64;66.7793;953.3088;;;;
2020/05/02 10:16:23;;;;;;;4.5;1.2;;;;;;;11.75;66.68164;953.305;;;;
2020/05/02 10:18:50;;;;;;;3.1;1.2;;;;;;;11.68;67.97461;953.2191;;;;
2020/05/02 10:21:15;;;;;;;4;1.3;;;;;;;11.62;67.03125;953.2947;;;;
2020/05/02 10:23:41;;;;;;;3.5;1.2;;;;;;;11.46;67.64063;953.303;;;;
2020/05/02 10:26:06;;;;;;;2.9;1.2;;;;;;;11.37;69.40137;953.1749;;;;
2020/05/02 10:28:34;;;;;;;5;1.2;;;;;;;11.29;71.64941;953.1772;;;;
2020/05/02 10:30:58;;;;;;;3.6;1.2;;;;;;;11.25;72.63281;953.1746;;;;
2020/05/02 10:33:24;;;;;;;4.2;1.3;;;;;;;11.29;72.81348;953.2285;;;;
2020/05/02 10:35:49;;;;;;;3.7;1.2;;;;;;;11.12;72.70313;953.2314;;;;
2020/05/02 10:38:16;;;;;;;3.8;1.1;;;;;;;11.24;72.74707;953.2615;;;;
2020/05/02 10:40:41;;;;;;;4;1.4;;;;;;;11.09;72.87109;953.21;;;;
2020/05/02 10:43:07;;;;;;;2.3;1;;;;;;;11.1;72.91992;953.2046;;;;
2020/05/02 10:45:32;;;;;;;1.9;1.3;;;;;;;11;72.91309;953.2314;;;;
2020/05/02 10:47:59;;;;;;;2.3;0.9;;;;;;;11;72.69629;953.2445;;;;
2020/05/02 10:50:24;;;;;;;3.3;1.2;;;;;;;10.8;72.94824;953.2172;;;;
2020/05/02 10:52:51;;;;;;;3.3;1.1;;;;;;;10.82;73.73535;953.2946;;;;
2020/05/02 10:55:16;;;;;;;4.9;1.4;;;;;;;10.87;73.88281;953.2681;;;;
2020/05/02 10:57:55;;;;;;;3.3;1.2;;;;;;;10.61;75.19629;953.2611;;;;
2020/05/02 11:00:09;;;;;;;3.5;1.2;;;;;;;10.71;75.74316;953.2173;;;;
2020/05/02 11:02:34;;;;;;;3.4;1.1;;;;;;;10.68;76.47559;953.1429;;;;
2020/05/02 11:04:59;;;;;;;3.2;1.2;;;;;;;10.64;77.25;953.3306;;;;
2020/05/02 11:07:24;;;;;;;2.8;1.1;;;;;;;10.53;78.44922;953.3425;;;;
2020/05/02 11:09:50;;;;;;;3.4;1.3;;;;;;;10.36;80.31836;953.3738;;;;
2020/05/02 11:12:15;;;;;;;3.7;1.4;;;;;;;10.39;82.33691;953.3691;;;;
2020/05/02 11:14:41;;;;;;;4.1;1.7;;;;;;;10.26;83.95703;953.3175;;;;
2020/05/02 11:17:06;;;;;;;3.8;1.3;;;;;;;10.42;82.06543;953.1895;;;;
2020/05/02 11:19:33;;;;;;;4.9;1.7;;;;;;;10.62;82.91016;953.2548;;;;
2020/05/02 11:21:58;;;;;;;3.9;1.4;;;;;;;10.85;82.16992;953.2434;;;;
2020/05/02 11:24:25;;;;;;;5;1.5;;;;;;;10.9;82.75684;953.2358;;;;
2020/05/02 11:26:50;;;;;;;3.9;1.4;;;;;;;11.04;80.19141;953.2327;;;;
2020/05/02 11:29:16;;;;;;;4.2;1.3;;;;;;;10.92;78.92383;953.3123;;;;
2020/05/02 11:31:41;;;;;;;3.1;1.3;;;;;;;10.99;78.30176;953.2714;;;;
2020/05/02 11:34:06;;;;;;;2.6;1.1;;;;;;;11.05;78.37207;953.3215;;;;
2020/05/02 11:36:33;;;;;;;3.8;1.3;;;;;;;11.24;76.96582;953.3317;;;;
2020/05/02 11:38:58;;;;;;;3.1;1.1;;;;;;;11.46;75.98926;953.3411;;;;
2020/05/02 11:41:23;;;;;;;3.3;1.1;;;;;;;11.76;75.58105;953.3395;;;;
2020/05/02 11:43:50;;;;;;;2.3;1;;;;;;;11.53;74.31738;953.3253;;;;
2020/05/02 11:46:15;;;;;;;3.8;1.2;;;;;;;11.66;74.88086;953.316;;;;
2020/05/02 11:48:41;;;;;;;3.9;1.4;;;;;;;11.63;74.62305;953.3003;;;;
2020/05/02 11:51:06;;;;;;;4;1.4;;;;;;;11.69;75.16406;953.3203;;;;
2020/05/02 11:53:33;;;;;;;3.6;1.1;;;;;;;11.46;76.16406;953.2793;;;;
2020/05/02 11:55:58;;;;;;;2.7;1;;;;;;;11.49;75.52441;953.1856;;;;
2020/05/02 11:58:24;;;;;;;2.8;0.8;;;;;;;11.8;75.01172;953.1428;;;;
2020/05/02 12:00:49;;;;;;;1.6;0.9;;;;;;;12.17;73.12305;953.0706;;;;
2020/05/02 12:03:16;;;;;;;2.6;0.8;;;;;;;12.4;73.25293;953.0385;;;;
2020/05/02 12:05:41;;;;;;;2.5;0.9;;;;;;;12.12;72.8252;953.074;;;;
2020/05/02 12:08:07;;;;;;;2.6;0.9;;;;;;;12.44;71.6543;952.9633;;;;
2020/05/02 12:10:32;;;;;;;1.8;1;;;;;;;12.91;70.74902;952.96;;;;
2020/05/02 12:12:58;;;;;;;3.1;1.1;;;;;;;12.92;68.67676;952.8389;;;;
2020/05/02 12:15:23;;;;;;;2.1;0.9;;;;;;;13.13;68.20215;952.8136;;;;
2020/05/02 12:17:50;;;;;;;3.1;1.1;;;;;;;13.14;67.33496;952.7872;;;;
2020/05/02 12:20:15;;;;;;;1.5;0.8;;;;;;;13.36;65.64355;952.7935;;;;
2020/05/02 12:22:42;;;;;;;3.1;0.9;;;;;;;13.87;65.45215;952.7285;;;;
2020/05/02 12:25:07;;;;;;;1.7;0.8;;;;;;;14.07;64.70508;952.7079;;;;
2020/05/02 12:27:34;;;;;;;1.8;0.8;;;;;;;13.96;62.13867;952.6297;;;;
2020/05/02 12:29:59;;;;;;;1.9;0.8;;;;;;;14.05;63.57813;952.6086;;;;
2020/05/02 12:32:25;;;;;;;1.5;0.6;;;;;;;13.9;62.29004;952.7324;;;;
2020/05/02 12:34:50;;;;;;;1.2;0.6;;;;;;;13.41;63.85449;952.6699;;;;
2020/05/02 12:37:15;;;;;;;2.2;0.7;;;;;;;13.1;65.62793;952.717;;;;
2020/05/02 12:39:41;;;;;;;1.9;0.9;;;;;;;13.32;66.48242;952.684;;;;
2020/05/02 12:42:06;;;;;;;2.1;0.6;;;;;;;13.17;66.10059;952.7374;;;;
2020/05/02 12:44:33;;;;;;;1.2;0.6;;;;;;;13.11;66.53223;952.7145;;;;
2020/05/02 12:46:58;;;;;;;2;0.7;;;;;;;12.72;66.85352;952.7109;;;;
2020/05/02 12:49:25;;;;;;;1.8;0.7;;;;;;;12.69;66.70996;952.7208;;;;
2020/05/02 12:51:50;;;;;;;1.1;0.7;;;;;;;12.65;67.1084;952.6552;;;;
2020/05/02 12:54:15;;;;;;;2.7;0.8;;;;;;;12.9;68.10742;952.6004;;;;
2020/05/02 12:59:07;;;;;;;2.6;0.7;;;;;;;13.15;67.59082;952.572;;;;
2020/05/02 13:01:34;;;;;;;2.2;0.7;;;;;;;13.22;68.09961;952.6423;;;;
2020/05/02 13:03:59;;;;;;;0.9;0.6;;;;;;;13.39;67.48926;952.5945;;;;
2020/05/02 13:06:26;;;;;;;2.5;0.9;;;;;;;13.03;68.45215;952.537;;;;
2020/05/02 13:08:51;;;;;;;1.1;0.7;;;;;;;13.08;68.08887;952.5396;;;;
2020/05/02 13:11:16;;;;;;;2.1;0.8;;;;;;;12.97;68.84766;952.6035;;;;
2020/05/02 13:13:41;;;;;;;1.7;0.7;;;;;;;12.8;69.06348;952.5187;;;;
2020/05/02 13:16:08;;;;;;;3.4;0.8;;;;;;;12.57;69.62793;952.5303;;;;
2020/05/02 13:19:13;;;;;;;1.9;0.8;;;;;;;12.65;70.94727;952.5579;;;;
2020/05/02 13:20:59;;;;;;;1.5;0.8;;;;;;;12.56;75.66211;952.5089;;;;
2020/05/02 13:25:55;;;;;;;1.2;0.9;;;;;;;11.77;85.7959;952.5248;;;;
2020/05/02 13:28:13;;;;;;;2.4;0.9;;;;;;;11.61;88.03516;952.5252;;;;
2020/05/02 13:30:39;;;;;;;3.2;1.2;;;;;;;11.36;95.06738;952.4473;;;;
2020/05/02 13:33:03;;;;;;;2.3;1;;;;;;;11.15;96.56641;952.4113;;;;
2020/05/02 13:35:30;;;;;;;2.3;1.2;;;;;;;10.89;95.98828;952.5111;;;;
2020/05/02 13:37:55;;;;;;;3.1;1.5;;;;;;;11.02;100;952.5388;;;;
2020/05/02 13:40:21;;;;;;;2.2;1.4;;;;;;;10.98;100;952.497;;;;
2020/05/02 13:42:46;;;;;;;3.5;1.5;;;;;;;10.87;100;952.4766;;;;
2020/05/02 13:45:11;;;;;;;2;1.3;;;;;;;10.88;100;952.3967;;;;
2020/05/02 13:47:36;;;;;;;1.8;1.1;;;;;;;10.67;98.66699;952.4443;;;;
2020/05/02 13:50:01;;;;;;;1.8;1;;;;;;;10.72;100;952.3347;;;;
2020/05/02 13:52:26;;;;;;;3.1;1.3;;;;;;;10.97;100;952.293;;;;
2020/05/02 13:54:52;;;;;;;2.4;1.2;;;;;;;10.96;100;952.4283;;;;
2020/05/02 13:57:18;;;;;;;1.3;1;;;;;;;10.82;100;952.459;;;;
2020/05/02 13:59:43;;;;;;;2.6;1.3;;;;;;;10.72;100;952.4236;;;;
2020/05/02 14:02:09;;;;;;;2.1;1;;;;;;;10.46;100;952.3369;;;;
2020/05/02 14:04:35;;;;;;;1.2;0.8;;;;;;;10.56;100;952.3434;;;;
2020/05/02 14:07:01;;;;;;;1.6;0.8;;;;;;;10.4;100;952.3339;;;;
2020/05/02 14:09:26;;;;;;;1;0.8;;;;;;;10.55;100;952.3881;;;;
2020/05/02 14:11:53;;;;;;;1.8;1.2;;;;;;;10.54;100;952.4092;;;;
2020/05/02 14:14:18;;;;;;;2;1;;;;;;;10.44;100;952.44;;;;
2020/05/02 14:16:44;;;;;;;3.7;1.4;;;;;;;10.3;100;952.4423;;;;
2020/05/02 14:19:09;;;;;;;1;0.9;;;;;;;10.22;100;952.4763;;;;
2020/05/02 14:21:37;;;;;;;4.1;2.6;;;;;;;10.09;100;952.537;;;;
2020/05/02 14:24:02;;;;;;;2.6;1.3;;;;;;;9.98;100;952.6141;;;;
2020/05/02 14:26:28;;;;;;;1.9;1.7;;;;;;;9.8;100;952.6912;;;;
2020/05/02 14:28:53;;;;;;;2.5;1.4;;;;;;;9.76;100;952.795;;;;
2020/05/02 14:31:19;;;;;;;2.9;1.5;;;;;;;9.57;99.2793;952.7609;;;;
2020/05/02 14:33:44;;;;;;;3.5;1.7;;;;;;;9.68;100;952.6492;;;;
2020/05/02 14:36:09;;;;;;;3.5;1.8;;;;;;;9.61;100;952.5753;;;;
2020/05/02 14:38:34;;;;;;;3.4;1.8;;;;;;;9.88;100;952.4383;;;;
2020/05/02 14:40:59;;;;;;;4.2;2.1;;;;;;;10.06;100;952.3837;;;;
2020/05/02 14:43:24;;;;;;;2.6;1.8;;;;;;;9.75;100;952.4888;;;;
2020/05/02 14:46:08;;;;;;;3.1;2.1;;;;;;;9.83;100;952.5287;;;;
2020/05/02 14:48:15;;;;;;;2.7;2;;;;;;;9.63;100;952.7811;;;;
2020/05/02 14:50:40;;;;;;;4;2.2;;;;;;;9.42;100;952.8925;;;;
2020/05/02 14:53:06;;;;;;;4.1;2.3;;;;;;;9.49;100;952.97;;;;
2020/05/02 14:55:31;;;;;;;3.9;2.5;;;;;;;9.37;100;952.9645;;;;
2020/05/02 14:57:57;;;;;;;4.6;2.4;;;;;;;9.28;100;953.0105;;;;
2020/05/02 15:00:22;;;;;;;5.7;2.6;;;;;;;9.09;100;953.0889;;;;
2020/05/02 15:02:47;;;;;;;5;2.6;;;;;;;9.05;100;953.1356;;;;
2020/05/02 15:05:12;;;;;;;4.2;3.1;;;;;;;9.13;100;953.1669;;;;
2020/05/02 15:07:37;;;;;;;5.3;3.3;;;;;;;9.03;100;953.1531;;;;